Shute Harbour, Australia

1:52 AM AEST on September 27, 2017 (GMT +1000)
Shute Harbour

Weather History for 94368 - January, 2014

Change the Weather History Date:

Friday, January 10, 2014

  Actual Average Record
Temperature  
Mean Temperature 75 °F -  
Max Temperature 78 °F - - ()
Min Temperature 72 °F - - ()
Cooling Degree Days 10    
Growing Degree Days 25 (Base 50)    
Moisture  
Dew Point 73 °F    
Average Humidity 91    
Maximum Humidity 100    
Minimum Humidity 78    
Precipitation  
Precipitation 1.89 in - - ()
Sea Level Pressure  
Sea Level Pressure 29.92 in    
Wind  
Wind Speed 21 mph ()    
Max Wind Speed 34 mph    
Max Gust Speed 41 mph    
Visibility 4.8 miles    
Events      
T = Trace of Precipitation, MM = Missing Value Source: Averaged Metar Reports

Daily Weather History Graph

Daily Weather History Graph

Search for Another Location

Airport or City:

Trip Planner

Search our weather history database for the weather conditions in past years. The results will help you decide how hot, cold, wet, or windy it might be!

Date:

Astronomy

Jan. 10, 2014 Rise Set
Actual Time 5:33 AM AEST 6:49 PM AEST
Civil Twilight 5:08 AM AEST 7:14 PM AEST
Nautical Twilight 4:39 AM AEST 7:43 PM AEST
Astronomical Twilight 4:09 AM AEST 8:12 PM AEST
Moon 1:54 PM AEST (1/10) 12:43 AM AEST (1/10)
Length of Visible Light 14h 05m
Length of Day
13h 16m
Waxing Gibbous, 69% of the Moon is Illuminated
Jan 10
Waxing Gibbous
Jan 16
Full
Jan 24
Last Quarter
Jan 31
New
Feb 7
First Quarter

Hourly Weather History & Observations

Time (AEST) Temp. Dew Point Humidity Pressure Visibility Wind Dir Wind Speed Gust Speed Precip Events Conditions
12:00 AM 76 °F 72 °F 84% 29.92 in - East 19.6 mph - -  
12:00 AM 77.0 °F 71.6 °F 83% 29.92 in 6.2 mi East 19.6 mph - N/A   Unknown
12:30 AM 78.8 °F 73.4 °F 83% 29.92 in 6.2 mi East 23.0 mph - N/A   Unknown
1:00 AM 78.8 °F 73.4 °F 83% 29.89 in 6.2 mi East 25.3 mph - N/A   Unknown
1:30 AM 78.8 °F 73.4 °F 83% 29.89 in 6.2 mi ESE 24.2 mph - N/A   Unknown
2:00 AM 78.8 °F 73.4 °F 83% 29.86 in 6.2 mi ESE 20.7 mph - N/A   Unknown
2:30 AM 78.8 °F 73.4 °F 83% 29.86 in 6.2 mi ESE 17.3 mph - N/A   Unknown
2:43 AM 78.8 °F 75.2 °F 89% 29.86 in 6.2 mi ESE 18.4 mph 29.9 mph N/A   Unknown
2:45 AM 77.0 °F 73.4 °F 89% 29.86 in 6.2 mi East 32.2 mph - N/A   Unknown
2:48 AM 77.0 °F 71.6 °F 83% 29.86 in 4.3 mi NNE 24.2 mph 38.0 mph N/A   Unknown
2:50 AM 75.2 °F 73.4 °F 94% 29.86 in 3.7 mi NNE 23.0 mph 38.0 mph N/A   Unknown
3:00 AM 75 °F 73 °F 92% 29.86 in 2 mi NE 15.0 mph - -  
3:00 AM 75.2 °F 73.4 °F 94% 29.86 in 1.7 mi NNE 15.0 mph - N/A   Unknown
3:22 AM 75.2 °F 73.4 °F 94% 29.86 in 5.0 mi ENE 17.3 mph - N/A   Unknown
3:30 AM 75.2 °F 73.4 °F 94% 29.86 in 5.0 mi ENE 17.3 mph - N/A   Unknown
3:40 AM 73.4 °F 71.6 °F 94% 29.86 in 3.7 mi ENE 17.3 mph - N/A   Unknown
4:00 AM 73.4 °F 71.6 °F 94% 29.86 in 3.7 mi East 18.4 mph - N/A   Unknown
4:14 AM 73.4 °F 71.6 °F 94% 29.86 in 5.6 mi East 19.6 mph - N/A   Unknown
4:29 AM 75.2 °F 73.4 °F 94% 29.86 in 3.7 mi East 23.0 mph - N/A   Unknown
4:30 AM 73.4 °F 73.4 °F 100% 29.86 in 3.7 mi East 24.2 mph - N/A   Unknown
4:47 AM 73.4 °F 73.4 °F 100% 29.86 in 5.0 mi East 20.7 mph - N/A   Unknown
5:00 AM 75.2 °F 73.4 °F 94% 29.86 in 6.2 mi East 18.4 mph - N/A   Unknown
5:30 AM 75.2 °F 73.4 °F 94% 29.89 in 6.2 mi ESE 24.2 mph - N/A   Unknown
5:40 AM 77.0 °F 73.4 °F 89% 29.89 in 6.2 mi ESE 21.9 mph 35.7 mph N/A   Unknown
5:42 AM 75.2 °F 73.4 °F 94% 29.89 in 6.2 mi East 34.5 mph - N/A   Unknown
6:00 AM 75.2 °F 73.4 °F 94% 29.89 in 6.2 mi East 32.2 mph - N/A   Unknown
6:30 AM 73.4 °F 73.4 °F 100% 29.92 in 3.1 mi East 21.9 mph - N/A   Unknown
7:00 AM 75.2 °F 73.4 °F 94% 29.92 in 3.1 mi ENE 17.3 mph - N/A   Unknown
7:29 AM 75.2 °F 73.4 °F 94% 29.95 in 3.1 mi East 23.0 mph - N/A   Unknown
7:30 AM 75.2 °F 73.4 °F 94% 29.95 in 3.1 mi East 21.9 mph - N/A   Unknown
8:00 AM 73.4 °F 73.4 °F 100% 29.95 in 0.9 mi NE 13.8 mph - N/A   Unknown
9:19 AM 75.2 °F 71.6 °F 89% 29.95 in 3.7 mi East 27.6 mph - N/A   Unknown
9:30 AM 75.2 °F 73.4 °F 94% 29.95 in 3.7 mi ESE 26.5 mph - N/A   Unknown
9:40 AM 75.2 °F 73.4 °F 94% 29.95 in 5.6 mi ESE 25.3 mph - N/A   Unknown
9:51 AM 73.4 °F 71.6 °F 94% 29.95 in 6.2 mi ESE 20.7 mph 36.8 mph N/A   Unknown
9:57 AM 73.4 °F 73.4 °F 100% 29.95 in 3.7 mi East 26.5 mph 38.0 mph N/A   Unknown
10:00 AM 73.4 °F 73.4 °F 100% 29.95 in - East 28.8 mph - N/A   Unknown
10:29 AM 75.2 °F 75.2 °F 100% 29.92 in 3.7 mi East 26.5 mph 40.3 mph N/A   Unknown
10:30 AM 77.0 °F 75.2 °F 94% 29.92 in 3.7 mi East 27.6 mph 40.3 mph N/A   Unknown
11:00 AM 77.0 °F 73.4 °F 89% 29.92 in 4.3 mi East 29.9 mph - N/A   Unknown
11:06 AM 75.2 °F 73.4 °F 94% 29.92 in 3.7 mi East 33.4 mph - N/A   Unknown
11:30 AM 75.2 °F 73.4 °F 94% 29.92 in 3.1 mi East 34.5 mph - N/A   Unknown
12:00 PM 74 °F 73 °F 96% 29.94 in 2 mi East 23.0 mph - -  
12:00 PM 75.2 °F 73.4 °F 94% 29.95 in 1.6 mi East 23.0 mph - N/A   Unknown
12:16 PM 75.2 °F 73.4 °F 94% 29.92 in 1.6 mi East 21.9 mph 33.4 mph N/A   Unknown
12:30 PM 73.4 °F 71.6 °F 94% 29.92 in 1.8 mi ENE 28.8 mph - N/A   Unknown
1:00 PM 75.2 °F 75.2 °F 100% 29.92 in 4.3 mi East 26.5 mph - N/A   Unknown
1:30 PM 73.4 °F 71.6 °F 94% 29.92 in - East 29.9 mph - N/A   Unknown
2:00 PM 75.2 °F 73.4 °F 94% 29.92 in - East 20.7 mph - N/A   Unknown
2:20 PM 75.2 °F 73.4 °F 94% 29.92 in 6.2 mi East 27.6 mph - N/A   Unknown
2:30 PM 75.2 °F 71.6 °F 89% 29.92 in 6.2 mi East 26.5 mph - N/A   Unknown
2:34 PM 75.2 °F 73.4 °F 94% 29.92 in 3.7 mi East 25.3 mph - N/A   Unknown
3:00 PM 75 °F 71 °F 82% 29.90 in 4 mi East 20.7 mph - -  
3:00 PM 75.2 °F 69.8 °F 83% 29.89 in 3.7 mi East 20.7 mph - N/A   Unknown
3:17 PM 75.2 °F 73.4 °F 94% 29.89 in 6.2 mi ESE 16.1 mph - N/A   Unknown
3:30 PM 77.0 °F 73.4 °F 89% 29.89 in 6.2 mi ESE 21.9 mph - N/A   Unknown
4:00 PM 77.0 °F 73.4 °F 89% 29.89 in 6.2 mi ESE 23.0 mph - N/A   Unknown
4:30 PM 77.0 °F 71.6 °F 83% 29.89 in 6.2 mi ESE 24.2 mph - N/A   Unknown
5:00 PM 77.0 °F 71.6 °F 83% 29.92 in 6.2 mi SE 23.0 mph - N/A   Unknown
5:30 PM 77.0 °F 73.4 °F 89% 29.92 in 6.2 mi ESE 23.0 mph - N/A   Unknown
6:00 PM 78 °F 73 °F 80% 29.92 in - ESE 25.3 mph - -  
6:00 PM 78.8 °F 73.4 °F 83% 29.92 in 6.2 mi ESE 25.3 mph - N/A   Unknown
6:30 PM 77.0 °F 73.4 °F 89% 29.95 in 6.2 mi SE 18.4 mph - N/A   Unknown
7:00 PM 77.0 °F 71.6 °F 83% 29.95 in 6.2 mi ESE 21.9 mph - N/A   Unknown
7:30 PM 78.8 °F 73.4 °F 83% 29.95 in 6.2 mi ESE 18.4 mph - N/A   Unknown
8:00 PM 78.8 °F 73.4 °F 83% 29.95 in 6.2 mi ESE 20.7 mph - N/A   Unknown
8:30 PM 77.0 °F 73.4 °F 89% 29.95 in 6.2 mi East 18.4 mph - N/A   Unknown
9:00 PM 78 °F 73 °F 81% 29.96 in - ESE 18.4 mph - -  
9:00 PM 77.0 °F 73.4 °F 89% 29.95 in 6.2 mi ESE 18.4 mph - N/A   Unknown
9:30 PM 77.0 °F 73.4 °F 89% 29.95 in 6.2 mi SE 15.0 mph - N/A   Unknown
9:44 PM 78.8 °F 73.4 °F 83% 29.95 in 6.2 mi ESE 17.3 mph 33.4 mph N/A   Unknown
9:48 PM 77.0 °F 71.6 °F 83% 29.95 in 6.2 mi East 32.2 mph - N/A   Unknown
9:55 PM 73.4 °F 69.8 °F 88% 29.95 in 3.7 mi East 31.1 mph - N/A   Unknown
9:56 PM 73.4 °F 69.8 °F 88% 29.95 in 3.7 mi East 29.9 mph 41.4 mph N/A   Unknown
10:00 PM 73.4 °F 71.6 °F 94% 29.95 in - ENE 27.6 mph 41.4 mph N/A   Unknown
10:13 PM 75.2 °F 73.4 °F 94% 29.95 in 5.0 mi East 9.2 mph - N/A   Unknown
10:17 PM 77.0 °F 75.2 °F 94% 29.95 in 6.2 mi East 11.5 mph 23.0 mph N/A   Unknown
10:26 PM 75.2 °F 73.4 °F 94% 29.95 in 6.2 mi NE 26.5 mph - N/A   Unknown
10:30 PM 75.2 °F 73.4 °F 94% 29.95 in 6.2 mi ENE 26.5 mph - N/A   Unknown
10:50 PM 75.2 °F 73.4 °F 94% 29.95 in 3.7 mi NE 28.8 mph - N/A   Unknown
10:53 PM 75.2 °F 73.4 °F 94% 29.95 in 3.1 mi ENE 26.5 mph 38.0 mph N/A   Unknown
11:00 PM 75.2 °F 73.4 °F 94% 29.95 in 1.8 mi ENE 19.6 mph - N/A   Unknown
11:01 PM 75.2 °F 73.4 °F 94% 29.95 in 1.9 mi ENE 18.4 mph 29.9 mph N/A   Unknown
11:17 PM 75.2 °F 73.4 °F 94% 29.95 in 6.2 mi NE 11.5 mph - N/A   Unknown
11:30 PM 78.8 °F 73.4 °F 83% 29.92 in 6.2 mi East 21.9 mph - N/A   Unknown
11:42 PM 77.0 °F 69.8 °F 78% 29.92 in 6.2 mi East 34.5 mph - N/A   Unknown